Главная страница
METAR-TAF:

METAR-TAF

Аэропорты :

Костанай, Казахстан

Наримановка

широта: 53-12-23N, долгота: 063-33-03E, высота над уровнем моря: 182 м

Текущие метеонаблюдения

Эта сводка был подготовлена 36 минут назад, в 16:00 UTC
Ветер 8 Узел от северный
Температура 21°C
Влажность 56%
Давление 1008 hPa
Видимость 10 км и более
Нет облачности ниже 1500 м, и нет кучево-дождевой облачности

METAR: UAUU 231600Z 35004MPS CAVOK 21/12 Q1008 R33/CLRD70 NOSIG RMK QFE741/0988

Время: 22:36 (16:36 UTC)

Прогноз

Эта сводка был подготовлена 2 часа и 36 минут назад, в 14:00 UTC
Прогноз действительный с 23-го 15 UTC до 23-го 24 UTC
Ветер 10 Узел от северо-западный
Видимость 10 км и более
Рассеянная облачность на высоте 2000 фута, Кучево-дождевые.
временами
С 23-го 15 UTC до 23-го 19 UTC
Ветер 17 Узел от северно-северо-западный
временами
С 23-го 21 UTC до 23-го 24 UTC
Видимость: 2000 м
дымка

TAF: UAUU 231400Z 2315/2324 32005MPS 9999 BKN020CB TEMPO 2315/2319 33009MPS TEMPO 2321/2324 2000 BR

Метеонаблюдения и прогнозы для более 4000 аэропортов (сводки METAR и TAF).

Имеющиеся станции представлены на карте желтыми и красными точками.

Чтобы увидеть название станции, наведите на нее мышь.

Затем щелкните, чтобы увидеть метеонаблюдения и метеопрогнозы.

Управление картой: чтобы увеличить масштаб, щелкните зеленые кнопки с черным крестиком; чтобы уменьшить масштаб, щелкните зеленую кнопку с тире; для просмотра соседних карт щелкайте зеленые стрелки.


METAR-TAF: